Time;durP1;ratioP1;P1;durP2;ratioP2;P2;SDS_P1;SDS_P2;PMS_P1;PMS_P2;Temp;Humidity;BMP_temperature;BMP_pressure;BME280_temperature;BME280_humidity;BME280_pressure;Samples;Min_cycle;Max_cycle;Signal;HPM_P1;HPM_P2
2021/12/03 00:00:13;;;;;;;13.00;4.53;;;;;;;;;;5009720;28;20493;-64
2021/12/03 00:02:41;;;;;;;12.27;4.78;;;;;;;;;;5012288;28;20049;-64
2021/12/03 00:05:10;;;;;;;12.73;5.13;;;;;;;;;;5002203;28;20060;-64
2021/12/03 00:07:40;;;;;;;11.15;4.63;;;;;;;;;;5012361;28;20117;-64
2021/12/03 00:10:10;;;;;;;10.30;5.07;;;;;;;;;;4999211;28;20072;-64
2021/12/03 00:12:41;;;;;;;12.00;5.13;;;;;;;;;;5012866;28;20103;-64
2021/12/03 00:15:10;;;;;;;12.27;4.80;;;;;;;;;;5010843;28;20058;-64
2021/12/03 00:17:38;;;;;;;11.65;4.75;;;;;;;;;;5012766;28;20053;-64
2021/12/03 00:20:09;;;;;;;12.27;5.55;;;;;;;;;;5009914;28;20056;-64
2021/12/03 00:22:38;;;;;;;13.27;4.93;;;;;;;;;;5012355;28;20061;-64
2021/12/03 00:25:06;;;;;;;11.63;4.88;;;;;;;;;;5007158;28;20136;-64
2021/12/03 00:27:35;;;;;;;13.25;6.07;;;;;;;;;;5020714;28;20064;-64
2021/12/03 00:30:05;;;;;;;11.98;5.38;;;;;;;;;;5020931;28;20502;-64
2021/12/03 00:32:33;;;;;;;10.57;4.82;;;;;;;;;;5012380;28;20050;-64
2021/12/03 00:35:01;;;;;;;17.58;5.47;;;;;;;;;;5012588;28;20145;-64
2021/12/03 00:37:29;;;;;;;16.00;5.10;;;;;;;;;;5011354;28;20052;-64
2021/12/03 00:39:58;;;;;;;13.90;5.60;;;;;;;;;;5011777;28;20042;-64
2021/12/03 00:42:28;;;;;;;12.73;4.97;;;;;;;;;;5012190;28;20060;-64
2021/12/03 00:44:56;;;;;;;9.98;4.72;;;;;;;;;;5012953;28;20136;-64
2021/12/03 00:47:26;;;;;;;10.10;4.72;;;;;;;;;;5011908;28;20104;-64
2021/12/03 00:49:54;;;;;;;11.05;5.20;;;;;;;;;;5010159;28;20050;-64
2021/12/03 00:59:28;;;;;;;12.90;5.38;;;;;;;;;;5009945;28;20037;-64
2021/12/03 01:01:56;;;;;;;10.25;4.88;;;;;;;;;;5011782;28;20133;-64
2021/12/03 01:04:26;;;;;;;14.68;5.22;;;;;;;;;;5004863;28;20042;-64
2021/12/03 01:10:04;;;;;;;14.65;5.13;;;;;;;;;;5009659;28;20073;-64
2021/12/03 01:12:32;;;;;;;10.50;4.65;;;;;;;;;;5007466;28;20050;-64
2021/12/03 01:15:01;;;;;;;11.93;5.60;;;;;;;;;;5010606;28;20046;-64
2021/12/03 01:17:29;;;;;;;11.25;5.32;;;;;;;;;;5011144;28;20045;-64
2021/12/03 01:19:59;;;;;;;14.98;6.68;;;;;;;;;;5009636;28;20042;-64
2021/12/03 01:22:27;;;;;;;13.10;5.72;;;;;;;;;;5012035;28;20569;-64
2021/12/03 01:24:56;;;;;;;11.75;5.20;;;;;;;;;;5004353;28;20045;-64
2021/12/03 01:27:30;;;;;;;12.96;6.34;;;;;;;;;;4790668;28;10000808;-65
2021/12/03 01:29:58;;;;;;;13.90;6.00;;;;;;;;;;689237;28;10002085;-64
2021/12/03 01:32:26;;;;;;;11.98;5.05;;;;;;;;;;5010788;28;20498;-64
2021/12/03 01:34:55;;;;;;;10.88;5.40;;;;;;;;;;5011905;28;20485;-64
2021/12/03 01:37:24;;;;;;;12.90;5.57;;;;;;;;;;5010486;28;20521;-64
2021/12/03 01:39:52;;;;;;;11.73;5.45;;;;;;;;;;5010751;28;20258;-64
2021/12/03 01:42:21;;;;;;;16.30;5.65;;;;;;;;;;5010247;28;20506;-64
2021/12/03 01:44:49;;;;;;;14.93;5.80;;;;;;;;;;5010287;28;20049;-64
2021/12/03 01:47:17;;;;;;;12.13;5.43;;;;;;;;;;5008000;28;20409;-64
2021/12/03 01:49:46;;;;;;;12.50;5.75;;;;;;;;;;5008457;28;20042;-64
2021/12/03 01:52:14;;;;;;;13.73;5.35;;;;;;;;;;5006145;28;20120;-64
2021/12/03 01:54:44;;;;;;;14.65;6.32;;;;;;;;;;5010976;28;20209;-64
2021/12/03 01:57:12;;;;;;;12.50;5.50;;;;;;;;;;5006856;28;20896;-64
2021/12/03 01:59:41;;;;;;;12.07;5.28;;;;;;;;;;5011433;28;20106;-65
2021/12/03 02:02:09;;;;;;;13.80;5.63;;;;;;;;;;5011684;28;20050;-65
2021/12/03 02:04:37;;;;;;;15.02;5.60;;;;;;;;;;5012050;28;20057;-65
2021/12/03 02:07:07;;;;;;;13.05;5.70;;;;;;;;;;5012554;28;20165;-65
2021/12/03 02:09:35;;;;;;;12.30;5.45;;;;;;;;;;5009570;28;20063;-65
2021/12/03 02:12:06;;;;;;;14.63;5.72;;;;;;;;;;5001724;28;20133;-65
2021/12/03 02:14:34;;;;;;;14.10;6.30;;;;;;;;;;5012794;28;20164;-65
2021/12/03 02:17:02;;;;;;;9.60;5.18;;;;;;;;;;5014251;28;20137;-65
2021/12/03 02:19:30;;;;;;;10.90;5.63;;;;;;;;;;5011438;28;20056;-64
2021/12/03 02:22:00;;;;;;;15.40;6.05;;;;;;;;;;4998103;28;20057;-65
2021/12/03 02:24:28;;;;;;;11.52;5.30;;;;;;;;;;5012414;28;20061;-65
2021/12/03 02:26:56;;;;;;;14.73;5.38;;;;;;;;;;5012502;28;20141;-65
2021/12/03 02:29:26;;;;;;;14.63;6.28;;;;;;;;;;5012526;28;20037;-65
2021/12/03 02:31:54;;;;;;;11.80;4.65;;;;;;;;;;5011850;28;20100;-64
2021/12/03 02:34:22;;;;;;;13.70;5.68;;;;;;;;;;5010921;28;20054;-64
2021/12/03 02:36:50;;;;;;;12.50;5.32;;;;;;;;;;5010291;28;20057;-64
2021/12/03 02:39:20;;;;;;;13.23;5.47;;;;;;;;;;5002532;28;20054;-64
2021/12/03 02:41:48;;;;;;;11.18;5.15;;;;;;;;;;5008589;28;20132;-64
2021/12/03 02:44:17;;;;;;;13.40;7.22;;;;;;;;;;5010260;28;20589;-64
2021/12/03 02:46:45;;;;;;;12.52;5.78;;;;;;;;;;5010607;28;20486;-64
2021/12/03 02:49:14;;;;;;;7.53;4.20;;;;;;;;;;5010134;28;20050;-64
2021/12/03 02:51:43;;;;;;;10.70;5.40;;;;;;;;;;4995494;28;20476;-64
2021/12/03 02:54:11;;;;;;;10.63;4.78;;;;;;;;;;5008577;28;20050;-64
2021/12/03 02:56:41;;;;;;;12.18;4.75;;;;;;;;;;5005439;28;20076;-64
2021/12/03 02:59:09;;;;;;;16.25;5.53;;;;;;;;;;5008243;28;20137;-64
2021/12/03 03:01:38;;;;;;;9.20;4.72;;;;;;;;;;4999494;28;20057;-65
2021/12/03 03:04:06;;;;;;;10.32;5.40;;;;;;;;;;5003129;28;20497;-64
2021/12/03 03:06:35;;;;;;;9.32;4.60;;;;;;;;;;5016964;28;20046;-64
2021/12/03 03:09:07;;;;;;;10.52;5.13;;;;;;;;;;5009157;28;20073;-64
2021/12/03 03:11:36;;;;;;;13.75;5.88;;;;;;;;;;5010130;28;20431;-64
2021/12/03 03:14:06;;;;;;;13.60;5.20;;;;;;;;;;5008796;28;20129;-63
2021/12/03 03:16:35;;;;;;;13.52;5.65;;;;;;;;;;5015193;28;20076;-63
2021/12/03 03:19:10;;;;;;;11.85;5.53;;;;;;;;;;5006003;28;20565;-64
2021/12/03 03:21:38;;;;;;;;;;;;;;;;;;5004645;28;20060;-63
2021/12/03 03:24:07;;;;;;;12.23;5.28;;;;;;;;;;5008502;28;20016;-63
2021/12/03 03:26:36;;;;;;;12.85;5.60;;;;;;;;;;5008409;28;20122;-64
2021/12/03 03:29:06;;;;;;;14.45;5.93;;;;;;;;;;5007952;28;20136;-63
2021/12/03 03:31:35;;;;;;;11.23;4.75;;;;;;;;;;5010088;28;20060;-63
2021/12/03 03:34:04;;;;;;;11.55;5.05;;;;;;;;;;4997470;28;20492;-63
2021/12/03 03:36:33;;;;;;;8.82;4.57;;;;;;;;;;5010633;28;20042;-63
2021/12/03 03:39:01;;;;;;;11.63;5.65;;;;;;;;;;5008977;28;20049;-63
2021/12/03 03:41:29;;;;;;;12.43;5.65;;;;;;;;;;5008235;28;20491;-63
2021/12/03 03:43:57;;;;;;;12.32;5.35;;;;;;;;;;5004054;28;20129;-64
2021/12/03 03:46:27;;;;;;;12.73;4.35;;;;;;;;;;5014814;28;20464;-63
2021/12/03 03:48:55;;;;;;;11.95;5.50;;;;;;;;;;4995172;28;20046;-64
2021/12/03 03:51:24;;;;;;;11.10;4.93;;;;;;;;;;5004041;28;20046;-63
2021/12/03 03:53:52;;;;;;;10.55;4.93;;;;;;;;;;5008751;28;20121;-63
2021/12/03 03:56:20;;;;;;;9.27;4.63;;;;;;;;;;5008603;28;20137;-63
2021/12/03 03:58:48;;;;;;;10.82;4.88;;;;;;;;;;5005210;28;20048;-64
2021/12/03 04:01:17;;;;;;;11.18;4.82;;;;;;;;;;5007092;28;20171;-65
2021/12/03 04:03:47;;;;;;;11.45;4.95;;;;;;;;;;5009425;28;20046;-64
2021/12/03 04:06:15;;;;;;;10.38;5.07;;;;;;;;;;5008487;28;20130;-64
2021/12/03 04:08:44;;;;;;;12.05;5.78;;;;;;;;;;5008985;28;20050;-64
2021/12/03 04:11:13;;;;;;;10.38;4.38;;;;;;;;;;5010108;28;20046;-64
2021/12/03 04:13:42;;;;;;;12.90;5.00;;;;;;;;;;5009181;28;20065;-64
2021/12/03 04:16:11;;;;;;;11.27;4.13;;;;;;;;;;5008700;28;20080;-64
2021/12/03 04:18:39;;;;;;;13.90;4.68;;;;;;;;;;5009421;28;20092;-63
2021/12/03 04:21:09;;;;;;;12.63;4.78;;;;;;;;;;5004680;28;20045;-64
2021/12/03 04:23:37;;;;;;;12.85;5.47;;;;;;;;;;4995951;28;20045;-63
2021/12/03 04:26:09;;;;;;;11.45;5.68;;;;;;;;;;5000354;28;20490;-63
2021/12/03 04:28:37;;;;;;;10.88;5.15;;;;;;;;;;5007988;28;20128;-64
2021/12/03 04:31:08;;;;;;;9.25;4.55;;;;;;;;;;5014104;28;20516;-63
2021/12/03 04:33:37;;;;;;;11.00;4.78;;;;;;;;;;5009231;28;20498;-63
2021/12/03 04:36:10;;;;;;;7.68;4.35;;;;;;;;;;5005199;28;20093;-64
2021/12/03 04:38:38;;;;;;;15.70;4.85;;;;;;;;;;5009257;28;20081;-64
2021/12/03 04:41:07;;;;;;;10.85;4.90;;;;;;;;;;5008833;28;20058;-63
2021/12/03 04:43:35;;;;;;;11.90;5.10;;;;;;;;;;5008747;28;20445;-64
2021/12/03 04:46:05;;;;;;;11.88;4.50;;;;;;;;;;5009248;28;20088;-65
2021/12/03 04:48:34;;;;;;;10.07;4.50;;;;;;;;;;5002427;28;20057;-65
2021/12/03 04:51:02;;;;;;;11.13;4.18;;;;;;;;;;5013746;28;20077;-64
2021/12/03 04:53:34;;;;;;;11.82;4.70;;;;;;;;;;5010739;28;20085;-64
2021/12/03 04:56:02;;;;;;;15.60;5.80;;;;;;;;;;5004492;28;20060;-63
2021/12/03 04:58:32;;;;;;;15.35;4.70;;;;;;;;;;5011669;28;20064;-66
2021/12/03 05:01:01;;;;;;;16.10;5.07;;;;;;;;;;5016460;28;20046;-63
2021/12/03 05:03:32;;;;;;;8.82;4.75;;;;;;;;;;5007165;28;20065;-64
2021/12/03 05:06:02;;;;;;;13.02;5.07;;;;;;;;;;5013413;28;20565;-63
2021/12/03 05:08:32;;;;;;;9.75;4.03;;;;;;;;;;5016144;28;20034;-64
2021/12/03 05:11:04;;;;;;;15.02;4.97;;;;;;;;;;5006720;28;21047;-65
2021/12/03 05:13:34;;;;;;;11.32;4.78;;;;;;;;;;5011714;28;20065;-65
2021/12/03 05:16:04;;;;;;;16.05;4.53;;;;;;;;;;5011666;28;20358;-65
2021/12/03 05:18:33;;;;;;;13.85;4.82;;;;;;;;;;5011500;28;20054;-64
2021/12/03 05:21:05;;;;;;;12.43;4.45;;;;;;;;;;5010405;28;20430;-64
2021/12/03 05:23:34;;;;;;;9.40;4.88;;;;;;;;;;5007807;28;20054;-65
2021/12/03 05:26:07;;;;;;;9.40;4.18;;;;;;;;;;5007956;28;20150;-65
2021/12/03 05:28:35;;;;;;;7.97;4.40;;;;;;;;;;5006476;28;20041;-65
2021/12/03 05:31:05;;;;;;;10.82;4.35;;;;;;;;;;5007423;28;20058;-63
2021/12/03 05:33:33;;;;;;;10.35;5.05;;;;;;;;;;5010595;28;20067;-64
2021/12/03 05:36:02;;;;;;;11.98;4.97;;;;;;;;;;5008895;28;20045;-64
2021/12/03 05:38:33;;;;;;;10.27;4.68;;;;;;;;;;5005429;28;20130;-64
2021/12/03 05:41:01;;;;;;;10.73;4.72;;;;;;;;;;5006712;28;20113;-64
2021/12/03 05:43:30;;;;;;;14.98;4.63;;;;;;;;;;5005149;28;20070;-64
2021/12/03 05:45:59;;;;;;;12.60;5.28;;;;;;;;;;5011726;28;20437;-64
2021/12/03 05:48:27;;;;;;;10.65;5.40;;;;;;;;;;5011448;28;20145;-63
2021/12/03 05:50:56;;;;;;;9.55;4.10;;;;;;;;;;5010027;28;20049;-63
2021/12/03 05:53:24;;;;;;;11.60;4.63;;;;;;;;;;5010489;28;20132;-64
2021/12/03 05:55:52;;;;;;;10.07;4.28;;;;;;;;;;5009786;28;20081;-64
2021/12/03 05:58:20;;;;;;;10.07;4.70;;;;;;;;;;5003704;28;20466;-63
2021/12/03 06:00:51;;;;;;;9.80;4.47;;;;;;;;;;5007886;28;20584;-63
2021/12/03 06:03:20;;;;;;;11.27;4.57;;;;;;;;;;5010364;28;20053;-64
2021/12/03 06:05:49;;;;;;;12.40;5.13;;;;;;;;;;5011550;28;20046;-64
2021/12/03 06:08:18;;;;;;;12.05;4.85;;;;;;;;;;5009857;28;20100;-65
2021/12/03 06:10:47;;;;;;;10.55;4.90;;;;;;;;;;5009808;28;20539;-64
2021/12/03 06:13:15;;;;;;;10.50;4.95;;;;;;;;;;5003854;28;20145;-65
2021/12/03 06:15:44;;;;;;;9.40;4.68;;;;;;;;;;5007585;28;20055;-65
2021/12/03 06:18:13;;;;;;;13.15;5.45;;;;;;;;;;5005852;28;20483;-66
2021/12/03 06:20:42;;;;;;;9.35;4.68;;;;;;;;;;5005750;28;20038;-64
2021/12/03 06:23:10;;;;;;;11.80;4.38;;;;;;;;;;5000892;28;20054;-63
2021/12/03 06:25:38;;;;;;;12.43;5.10;;;;;;;;;;5005733;28;20050;-64
2021/12/03 06:28:07;;;;;;;9.88;5.13;;;;;;;;;;5007124;28;20140;-65
2021/12/03 06:30:35;;;;;;;11.57;4.93;;;;;;;;;;5005872;28;20066;-64
2021/12/03 06:33:05;;;;;;;8.23;3.80;;;;;;;;;;5005044;28;20137;-65
2021/12/03 06:35:35;;;;;;;13.75;5.65;;;;;;;;;;5006006;28;20172;-65
2021/12/03 06:38:03;;;;;;;11.73;4.72;;;;;;;;;;5004327;28;20052;-65
2021/12/03 06:40:32;;;;;;;10.82;5.28;;;;;;;;;;5004329;28;20173;-64
2021/12/03 06:43:00;;;;;;;8.48;3.92;;;;;;;;;;5007358;28;20046;-65
2021/12/03 06:45:29;;;;;;;11.48;5.38;;;;;;;;;;5023693;28;20059;-65
2021/12/03 06:47:57;;;;;;;13.20;5.60;;;;;;;;;;5009901;28;20049;-65
2021/12/03 06:50:25;;;;;;;10.52;4.68;;;;;;;;;;5005248;28;20191;-64
2021/12/03 06:52:59;;;;;;;9.85;4.80;;;;;;;;;;5004688;28;20052;-63
2021/12/03 06:55:28;;;;;;;12.98;4.57;;;;;;;;;;5003645;28;20045;-65
2021/12/03 06:57:56;;;;;;;12.20;4.65;;;;;;;;;;5006665;28;20132;-64
2021/12/03 07:00:25;;;;;;;10.05;5.32;;;;;;;;;;5005658;28;20060;-65
2021/12/03 07:02:53;;;;;;;12.40;5.15;;;;;;;;;;5003694;28;20041;-64
2021/12/03 07:05:22;;;;;;;10.18;4.18;;;;;;;;;;5005446;28;20509;-64
2021/12/03 07:07:51;;;;;;;11.63;5.40;;;;;;;;;;5005299;28;20082;-64
2021/12/03 07:10:21;;;;;;;14.68;5.55;;;;;;;;;;5005376;28;20057;-64
2021/12/03 07:12:50;;;;;;;8.75;4.38;;;;;;;;;;5000865;28;20073;-65
2021/12/03 07:15:19;;;;;;;10.88;5.00;;;;;;;;;;5003417;28;20153;-64
2021/12/03 07:17:50;;;;;;;12.80;5.32;;;;;;;;;;5008387;28;20056;-64
2021/12/03 07:20:19;;;;;;;12.15;5.57;;;;;;;;;;5008551;28;20049;-64
2021/12/03 07:22:48;;;;;;;12.43;4.78;;;;;;;;;;5007737;28;20137;-64
2021/12/03 07:25:16;;;;;;;10.30;4.57;;;;;;;;;;5009788;28;20373;-64
2021/12/03 07:27:46;;;;;;;10.77;4.70;;;;;;;;;;5009457;28;20057;-64
2021/12/03 07:30:15;;;;;;;14.95;4.78;;;;;;;;;;5005282;28;20120;-64
2021/12/03 07:32:44;;;;;;;11.27;5.25;;;;;;;;;;5007065;28;20050;-64
2021/12/03 07:35:13;;;;;;;12.40;4.85;;;;;;;;;;5008398;28;20544;-64
2021/12/03 07:37:42;;;;;;;17.58;5.43;;;;;;;;;;5004221;28;20046;-64
2021/12/03 07:40:12;;;;;;;9.23;4.80;;;;;;;;;;5006758;28;20089;-64
2021/12/03 07:42:41;;;;;;;13.85;5.53;;;;;;;;;;5004294;28;22295;-64
2021/12/03 07:45:13;;;;;;;10.07;5.25;;;;;;;;;;5004855;28;20101;-64
2021/12/03 07:47:42;;;;;;;15.13;6.25;;;;;;;;;;5005591;28;20425;-64
2021/12/03 07:50:11;;;;;;;12.27;5.82;;;;;;;;;;5005878;28;20053;-64
2021/12/03 07:52:39;;;;;;;18.33;5.45;;;;;;;;;;5004235;28;20050;-64
2021/12/03 07:55:08;;;;;;;14.27;5.07;;;;;;;;;;5002812;28;20592;-64
2021/12/03 07:57:37;;;;;;;14.95;5.72;;;;;;;;;;5002158;28;20140;-64
2021/12/03 08:00:06;;;;;;;15.57;6.35;;;;;;;;;;4998410;28;20088;-64
2021/12/03 08:02:36;;;;;;;12.57;5.22;;;;;;;;;;5007274;28;20126;-64
2021/12/03 08:05:05;;;;;;;13.93;5.03;;;;;;;;;;5007356;28;20050;-64
2021/12/03 08:07:34;;;;;;;10.20;5.28;;;;;;;;;;5005271;28;20066;-64
2021/12/03 08:10:04;;;;;;;11.45;5.40;;;;;;;;;;5005704;28;20143;-64
2021/12/03 08:12:32;;;;;;;13.80;6.03;;;;;;;;;;4999812;28;20115;-64
2021/12/03 08:15:01;;;;;;;11.68;5.20;;;;;;;;;;5006309;28;20624;-64
2021/12/03 08:17:29;;;;;;;13.43;5.07;;;;;;;;;;5006905;28;20042;-64
2021/12/03 08:19:59;;;;;;;10.75;5.43;;;;;;;;;;5007501;28;20082;-64
2021/12/03 08:22:29;;;;;;;11.93;5.60;;;;;;;;;;5008591;28;20073;-64
2021/12/03 08:24:57;;;;;;;14.13;6.50;;;;;;;;;;5009403;28;20053;-64
2021/12/03 08:27:26;;;;;;;11.75;5.45;;;;;;;;;;5006802;28;20058;-64
2021/12/03 08:29:55;;;;;;;12.60;5.20;;;;;;;;;;5006609;28;20057;-64
2021/12/03 08:32:23;;;;;;;10.60;5.60;;;;;;;;;;5008193;28;20056;-64
2021/12/03 08:34:53;;;;;;;12.02;5.22;;;;;;;;;;5008306;28;20046;-64
2021/12/03 08:37:23;;;;;;;16.10;5.95;;;;;;;;;;5013827;28;20049;-64
2021/12/03 08:39:52;;;;;;;14.35;6.00;;;;;;;;;;5005354;28;20038;-64
2021/12/03 08:42:21;;;;;;;11.57;5.03;;;;;;;;;;5005934;28;20054;-64
2021/12/03 08:44:50;;;;;;;10.18;5.43;;;;;;;;;;5004469;28;20060;-64
2021/12/03 08:47:19;;;;;;;12.07;5.53;;;;;;;;;;5007484;28;20048;-64
2021/12/03 08:49:50;;;;;;;14.00;5.70;;;;;;;;;;5006156;28;20069;-64
2021/12/03 08:52:34;;;;;;;16.90;5.90;;;;;;;;;;5006802;28;20058;-64
2021/12/03 08:55:02;;;;;;;12.70;5.63;;;;;;;;;;5009568;28;20046;-64
2021/12/03 08:57:31;;;;;;;13.80;5.38;;;;;;;;;;5010711;28;20141;-64
2021/12/03 09:00:01;;;;;;;12.80;5.32;;;;;;;;;;5006626;28;20108;-64
2021/12/03 09:02:30;;;;;;;9.23;5.03;;;;;;;;;;5007678;28;20128;-64
2021/12/03 09:04:58;;;;;;;10.48;5.30;;;;;;;;;;5007401;28;20504;-64
2021/12/03 09:07:29;;;;;;;14.13;5.57;;;;;;;;;;5010300;28;20068;-64
2021/12/03 09:09:58;;;;;;;11.70;5.40;;;;;;;;;;5008294;28;20485;-64
2021/12/03 09:12:27;;;;;;;9.77;4.57;;;;;;;;;;5007850;28;20045;-64
2021/12/03 09:14:58;;;;;;;10.48;4.65;;;;;;;;;;5003951;28;20266;-64
2021/12/03 09:17:41;;;;;;;8.18;4.68;;;;;;;;;;5010371;28;20050;-64
2021/12/03 09:20:20;;;;;;;8.15;4.78;;;;;;;;;;5012344;28;20083;-64
2021/12/03 09:22:52;;;;;;;11.48;5.00;;;;;;;;;;5008156;28;20433;-64
2021/12/03 09:25:23;;;;;;;11.02;5.55;;;;;;;;;;5010594;28;20128;-64
2021/12/03 09:27:52;;;;;;;10.25;5.25;;;;;;;;;;4999717;28;20082;-64
2021/12/03 09:30:21;;;;;;;9.95;4.57;;;;;;;;;;5011049;28;20100;-64
2021/12/03 09:32:54;;;;;;;10.43;4.60;;;;;;;;;;5008709;28;20048;-64
2021/12/03 09:35:24;;;;;;;9.15;4.63;;;;;;;;;;5007453;28;20060;-64
2021/12/03 09:37:54;;;;;;;8.73;4.63;;;;;;;;;;5008355;28;20060;-64
2021/12/03 09:40:26;;;;;;;9.77;4.45;;;;;;;;;;5002037;28;20050;-64
2021/12/03 09:42:55;;;;;;;8.77;4.15;;;;;;;;;;5007036;28;20904;-64
2021/12/03 09:45:23;;;;;;;10.73;4.63;;;;;;;;;;5009053;28;20583;-64
2021/12/03 09:47:53;;;;;;;10.40;4.93;;;;;;;;;;5007184;28;20054;-64
2021/12/03 09:50:21;;;;;;;9.05;5.05;;;;;;;;;;5007528;28;20052;-64
2021/12/03 09:53:05;;;;;;;13.23;5.10;;;;;;;;;;5009634;28;20100;-64
2021/12/03 09:55:35;;;;;;;10.23;5.25;;;;;;;;;;5000507;28;20053;-64
2021/12/03 09:58:13;;;;;;;9.82;4.47;;;;;;;;;;5006194;28;20054;-64
2021/12/03 10:00:46;;;;;;;13.18;5.18;;;;;;;;;;5005262;28;20050;-64
2021/12/03 10:03:30;;;;;;;8.80;4.30;;;;;;;;;;5006055;28;20046;-64
2021/12/03 10:20:19;;;;;;;11.18;4.85;;;;;;;;;;4999852;28;20050;-64
2021/12/03 10:34:24;;;;;;;5.97;2.90;;;;;;;;;;4975420;28;20410;-64
2021/12/03 10:39:50;;;;;;;;;;;;;;;;;;5000446;28;20421;-65
2021/12/03 10:42:29;;;;;;;9.48;4.47;;;;;;;;;;5000519;28;19979;-65
2021/12/03 10:45:11;;;;;;;9.38;3.92;;;;;;;;;;5001403;28;20476;-64
2021/12/03 10:47:49;;;;;;;7.38;3.50;;;;;;;;;;5002261;28;20044;-65
2021/12/03 10:50:40;;;;;;;10.50;3.25;;;;;;;;;;5000929;28;20662;-65
2021/12/03 10:53:22;;;;;;;9.45;4.60;;;;;;;;;;4999326;28;20054;-65
2021/12/03 11:02:12;;;;;;;6.45;3.13;;;;;;;;;;5003181;28;21196;-64
2021/12/03 11:07:45;;;;;;;7.88;3.25;;;;;;;;;;5005313;28;20037;-65
2021/12/03 11:30:23;;;;;;;4.88;2.60;;;;;;;;;;4954715;28;20082;-65
2021/12/03 12:17:21;;;;;;;5.70;1.63;;;;;;;;;;5105140;28;20054;-67
2021/12/03 12:35:19;;;;;;;7.18;3.15;;;;;;;;;;5070981;28;20581;-66
2021/12/03 13:18:55;;;;;;;12.02;3.13;;;;;;;;;;5032895;28;20806;-66
2021/12/03 13:33:56;;;;;;;10.23;3.03;;;;;;;;;;5044446;28;20051;-66
2021/12/03 14:40:54;;;;;;;7.03;2.78;;;;;;;;;;5082936;28;20079;-66
2021/12/03 14:46:13;;;;;;;7.53;2.63;;;;;;;;;;5085362;28;20054;-67
2021/12/03 14:54:31;;;;;;;6.78;2.90;;;;;;;;;;5074921;28;20072;-67
2021/12/03 14:57:10;;;;;;;5.82;2.80;;;;;;;;;;5082301;28;20075;-67
2021/12/03 14:59:43;;;;;;;8.07;3.00;;;;;;;;;;5077056;28;20056;-67
2021/12/03 15:02:22;;;;;;;5.07;2.42;;;;;;;;;;5086653;28;20065;-67
2021/12/03 15:05:03;;;;;;;9.75;2.45;;;;;;;;;;5085408;28;20052;-67
2021/12/03 15:07:38;;;;;;;6.45;3.10;;;;;;;;;;5084973;28;20079;-66
2021/12/03 15:10:14;;;;;;;7.82;2.72;;;;;;;;;;5082602;28;20371;-67
2021/12/03 15:13:12;;;;;;;5.38;2.70;;;;;;;;;;5078998;28;20052;-67
2021/12/03 15:18:50;;;;;;;8.00;3.38;;;;;;;;;;5078147;28;20054;-67
2021/12/03 15:21:51;;;;;;;8.82;2.95;;;;;;;;;;5075938;28;20044;-67
2021/12/03 15:24:42;;;;;;;7.60;2.33;;;;;;;;;;5059618;28;20140;-67
2021/12/03 15:32:59;;;;;;;6.97;2.55;;;;;;;;;;5070172;28;20075;-67
2021/12/03 15:35:34;;;;;;;5.20;2.72;;;;;;;;;;5076072;28;20127;-66
2021/12/03 15:38:20;;;;;;;9.38;3.17;;;;;;;;;;5073815;28;20067;-67
2021/12/03 15:55:04;;;;;;;11.80;3.08;;;;;;;;;;5070918;28;20055;-67
2021/12/03 16:08:41;;;;;;;6.35;2.55;;;;;;;;;;5076218;28;20135;-67
2021/12/03 16:11:16;;;;;;;7.43;3.40;;;;;;;;;;5077692;28;20048;-68
2021/12/03 16:13:52;;;;;;;5.72;2.35;;;;;;;;;;5073591;28;20441;-67
2021/12/03 16:19:24;;;;;;;11.23;5.10;;;;;;;;;;5073099;28;20101;-67
2021/12/03 16:44:07;;;;;;;13.48;6.10;;;;;;;;;;5077555;28;20048;-66
2021/12/03 16:46:44;;;;;;;9.40;5.10;;;;;;;;;;5079840;28;20058;-67
2021/12/03 16:52:02;;;;;;;6.30;3.40;;;;;;;;;;5085799;28;20046;-67
2021/12/03 16:54:54;;;;;;;7.15;3.40;;;;;;;;;;5084485;28;20097;-67
2021/12/03 16:57:28;;;;;;;4.68;2.95;;;;;;;;;;5090302;28;20116;-67
2021/12/03 17:00:21;;;;;;;14.18;3.30;;;;;;;;;;5079865;28;20492;-67
2021/12/03 17:03:05;;;;;;;6.47;3.40;;;;;;;;;;5078430;28;20044;-68
2021/12/03 17:08:50;;;;;;;;;;;;;;;;;;5073222;28;19928;-66
2021/12/03 17:11:39;;;;;;;5.28;2.95;;;;;;;;;;5082929;28;19928;-67
2021/12/03 17:14:14;;;;;;;6.72;3.28;;;;;;;;;;5095388;28;20071;-67
2021/12/03 17:17:07;;;;;;;6.32;3.05;;;;;;;;;;5087650;28;20063;-67
2021/12/03 17:25:43;;;;;;;6.32;2.45;;;;;;;;;;5067632;28;20055;-68
2021/12/03 17:47:55;;;;;;;7.57;3.10;;;;;;;;;;5064201;28;20122;-67
2021/12/03 17:50:41;;;;;;;6.00;2.60;;;;;;;;;;5063689;28;20128;-68
2021/12/03 17:53:45;;;;;;;5.38;2.97;;;;;;;;;;5063257;28;20500;-66
2021/12/03 17:56:15;;;;;;;5.43;3.15;;;;;;;;;;5065492;28;20476;-66
2021/12/03 17:58:44;;;;;;;5.93;2.75;;;;;;;;;;5066793;28;20056;-67
2021/12/03 18:01:18;;;;;;;5.72;2.72;;;;;;;;;;5066143;28;20060;-67
2021/12/03 18:03:58;;;;;;;10.05;2.97;;;;;;;;;;5064387;28;20068;-66
2021/12/03 18:06:46;;;;;;;4.82;2.95;;;;;;;;;;5067527;28;20052;-66
2021/12/03 18:51:17;;;;;;;10.13;4.03;;;;;;;;;;5084142;28;20050;-66
2021/12/03 18:54:00;;;;;;;8.73;3.95;;;;;;;;;;5085174;28;20116;-66
2021/12/03 18:56:37;;;;;;;7.30;3.67;;;;;;;;;;5082458;28;20043;-66
2021/12/03 18:59:08;;;;;;;8.63;3.97;;;;;;;;;;5081566;28;20565;-66
2021/12/03 19:01:36;;;;;;;7.47;3.22;;;;;;;;;;5085832;28;20052;-67
2021/12/03 19:04:19;;;;;;;9.82;3.65;;;;;;;;;;5085454;28;20044;-67
2021/12/03 19:06:53;;;;;;;12.00;4.88;;;;;;;;;;5083358;28;20050;-66
2021/12/03 19:09:24;;;;;;;11.02;3.92;;;;;;;;;;5084942;28;20470;-66
2021/12/03 19:11:57;;;;;;;11.63;4.38;;;;;;;;;;5082866;28;20126;-67
2021/12/03 19:14:28;;;;;;;10.60;3.92;;;;;;;;;;5078671;28;20575;-66
2021/12/03 19:16:57;;;;;;;9.00;4.20;;;;;;;;;;5084891;28;20097;-67
2021/12/03 19:19:27;;;;;;;10.48;4.22;;;;;;;;;;5067753;28;20148;-67
2021/12/03 19:21:59;;;;;;;8.77;4.60;;;;;;;;;;5078488;28;20923;-66
2021/12/03 19:24:28;;;;;;;8.73;3.90;;;;;;;;;;5086136;28;20083;-66
2021/12/03 19:26:57;;;;;;;7.05;4.22;;;;;;;;;;5080393;28;20223;-66
2021/12/03 19:29:25;;;;;;;8.70;4.15;;;;;;;;;;5085646;28;20076;-66
2021/12/03 19:31:54;;;;;;;9.50;3.83;;;;;;;;;;5084871;28;20511;-67
2021/12/03 19:34:24;;;;;;;8.50;4.10;;;;;;;;;;5082337;28;20153;-66
2021/12/03 19:36:52;;;;;;;8.02;3.92;;;;;;;;;;5084685;28;20048;-66
2021/12/03 19:39:23;;;;;;;8.27;4.05;;;;;;;;;;5083899;28;20454;-66
2021/12/03 19:41:57;;;;;;;7.53;3.95;;;;;;;;;;5074582;28;20502;-66
2021/12/03 19:44:35;;;;;;;7.93;4.30;;;;;;;;;;5076755;28;20044;-66
2021/12/03 19:47:03;;;;;;;5.93;3.50;;;;;;;;;;5069886;28;20109;-67
2021/12/03 19:49:38;;;;;;;8.10;3.88;;;;;;;;;;5076897;28;20127;-67
2021/12/03 19:52:11;;;;;;;8.70;4.05;;;;;;;;;;5076229;28;20105;-67
2021/12/03 19:54:41;;;;;;;4.55;3.08;;;;;;;;;;5077235;28;20052;-67
2021/12/03 19:57:10;;;;;;;6.72;3.85;;;;;;;;;;5075749;28;20047;-67
2021/12/03 19:59:38;;;;;;;14.63;4.78;;;;;;;;;;5073141;28;20048;-67
2021/12/03 20:02:07;;;;;;;10.02;3.92;;;;;;;;;;5074012;28;20655;-66
2021/12/03 20:04:35;;;;;;;11.23;4.45;;;;;;;;;;5076320;28;20134;-67
2021/12/03 20:07:04;;;;;;;7.55;4.40;;;;;;;;;;5072104;28;20414;-68
2021/12/03 20:09:40;;;;;;;6.47;2.92;;;;;;;;;;5076358;28;20076;-66
2021/12/03 20:12:13;;;;;;;8.13;3.90;;;;;;;;;;5071409;28;20055;-67
2021/12/03 20:14:44;;;;;;;6.53;3.30;;;;;;;;;;5076905;28;20070;-67
2021/12/03 20:17:18;;;;;;;8.60;3.60;;;;;;;;;;5076934;28;20053;-67
2021/12/03 20:19:50;;;;;;;7.15;3.40;;;;;;;;;;5078671;28;20075;-67
2021/12/03 20:22:21;;;;;;;11.75;3.50;;;;;;;;;;5084571;28;20312;-66
2021/12/03 20:25:10;;;;;;;6.03;3.47;;;;;;;;;;5075248;28;20048;-66
2021/12/03 20:27:42;;;;;;;6.97;3.53;;;;;;;;;;5088223;28;20444;-67
2021/12/03 20:30:16;;;;;;;6.00;3.55;;;;;;;;;;5087942;28;20482;-67
2021/12/03 20:33:01;;;;;;;8.10;2.78;;;;;;;;;;5083979;28;20056;-68
2021/12/03 20:38:24;;;;;;;6.93;3.15;;;;;;;;;;5085658;28;20093;-67
2021/12/03 20:40:55;;;;;;;5.00;2.70;;;;;;;;;;5086909;28;20051;-67
2021/12/03 20:43:34;;;;;;;5.03;3.45;;;;;;;;;;5087436;28;20302;-67
2021/12/03 20:46:16;;;;;;;5.75;3.05;;;;;;;;;;5078428;28;20051;-67
2021/12/03 20:49:02;;;;;;;6.97;3.17;;;;;;;;;;5078779;28;20165;-67
2021/12/03 20:51:46;;;;;;;5.65;3.13;;;;;;;;;;5087616;28;20579;-67
2021/12/03 20:54:24;;;;;;;;;;;;;;;;;;5050873;28;20505;-67
2021/12/03 21:08:26;;;;;;;6.32;3.00;;;;;;;;;;4988396;28;20054;-66
2021/12/03 21:11:01;;;;;;;4.75;3.00;;;;;;;;;;4996265;28;20170;-67
2021/12/03 21:13:33;;;;;;;7.00;3.38;;;;;;;;;;5041109;28;20135;-67
2021/12/03 21:16:13;;;;;;;5.70;3.17;;;;;;;;;;5084570;28;20069;-67
2021/12/03 21:18:49;;;;;;;4.57;2.85;;;;;;;;;;5084477;28;20492;-66
2021/12/03 21:21:25;;;;;;;6.10;3.15;;;;;;;;;;5077354;28;20043;-67
2021/12/03 21:23:53;;;;;;;5.40;2.65;;;;;;;;;;5084254;28;20503;-67
2021/12/03 21:26:24;;;;;;;6.22;3.72;;;;;;;;;;5084035;28;20101;-66
2021/12/03 21:29:03;;;;;;;4.82;2.88;;;;;;;;;;5084508;28;20177;-68
2021/12/03 21:31:36;;;;;;;7.38;3.30;;;;;;;;;;5085526;28;20048;-67
2021/12/03 21:39:54;;;;;;;9.35;3.55;;;;;;;;;;5083779;28;20167;-66
2021/12/03 21:42:23;;;;;;;7.38;4.03;;;;;;;;;;5081512;28;20166;-67
2021/12/03 21:44:51;;;;;;;8.18;3.33;;;;;;;;;;5083372;28;20044;-67
2021/12/03 21:47:21;;;;;;;8.88;3.55;;;;;;;;;;5082877;28;20056;-67